EIME

Casement Air Base Airport

Baldonnel, Ireland
METAR EIME 211500Z 24011KT CAVOK 19/05 Q1013
Observed Flight Rules
Apr-21 @ 15:00 UTC (37 minutes ago) Visual Flight Rules
Wind Visibility Clouds
240° at 11 knots 10,000+ meters
  • Clear skies
Temperatures Readings
Current 19°C / 66°F
Dewpoint 5°C / 41°F
Humidity 40%
Altimeter 29.91" Hg
Pressure 1013 hPa
Elevation 93
METAR EIME 211500Z 24011KT CAVOK 19/05 Q1013
Observed Flight Rules
Apr-21 @ 15:00 UTC
(37 minutes ago)
VFR
Wind Visibility
240° at 11 knots 10,000+ meters
Clouds
  • Clear skies
Temperature Dewpoint
19°C / 66°F 5°C / 41°F
Humidity Altimeter Pressure
40% 29.91" Hg 1013 hPa